createdAt,value
2023-04-16T00:01:08.267Z,4.50
2023-04-16T00:03:38.510Z,4.93
2023-04-16T00:06:08.831Z,5.15
2023-04-16T00:08:38.953Z,5.35
2023-04-16T00:11:09.722Z,4.88
2023-04-16T00:13:39.865Z,5.50
2023-04-16T00:16:10.051Z,6.30
2023-04-16T00:18:40.318Z,4.95
2023-04-16T00:21:11.243Z,4.93
2023-04-16T00:23:41.337Z,5.18
2023-04-16T00:26:11.504Z,4.75
2023-04-16T00:28:41.867Z,5.22
2023-04-16T00:31:11.928Z,6.55
2023-04-16T00:33:42.172Z,5.43
2023-04-16T00:36:12.301Z,5.40
2023-04-16T00:38:42.433Z,4.82
2023-04-16T00:41:12.629Z,5.47
2023-04-16T00:43:42.896Z,4.60
2023-04-16T00:46:13.280Z,6.47
2023-04-16T00:48:45.027Z,5.57
2023-04-16T00:51:15.585Z,6.00
2023-04-16T00:53:46.216Z,4.07
2023-04-16T00:56:17.683Z,8.55
2023-04-16T00:58:48.000Z,4.95
2023-04-16T01:01:18.183Z,7.00
2023-04-16T01:03:49.721Z,4.70
2023-04-16T01:06:19.924Z,6.07
2023-04-16T01:08:50.033Z,5.07
2023-04-16T01:11:20.062Z,4.60
2023-04-16T01:13:50.637Z,4.80
2023-04-16T01:16:21.150Z,5.97
2023-04-16T01:18:51.352Z,5.25
2023-04-16T01:21:21.468Z,5.90
2023-04-16T01:23:51.585Z,4.57
2023-04-16T01:26:21.784Z,6.03
2023-04-16T01:28:51.898Z,6.93
2023-04-16T01:31:22.072Z,5.00
2023-04-16T01:33:52.259Z,6.60
2023-04-16T01:36:22.373Z,5.10
2023-04-16T01:38:52.557Z,7.43
2023-04-16T01:41:22.821Z,6.47
2023-04-16T01:43:52.884Z,6.43
2023-04-16T01:46:32.484Z,5.70
2023-04-16T01:49:04.597Z,5.03
2023-04-16T01:51:34.772Z,6.20
2023-04-16T01:54:05.040Z,5.80
2023-04-16T01:56:35.423Z,6.20
2023-04-16T01:59:05.679Z,6.07
2023-04-16T02:01:35.904Z,5.65
2023-04-16T02:04:06.696Z,5.65
2023-04-16T02:06:36.869Z,5.65
2023-04-16T02:09:07.114Z,5.40
2023-04-16T02:11:37.315Z,6.55
2023-04-16T02:14:08.758Z,6.13
2023-04-16T02:16:38.926Z,5.13
2023-04-16T02:19:09.382Z,6.45
2023-04-16T02:21:39.845Z,6.15
2023-04-16T02:24:10.032Z,5.85
2023-04-16T02:26:40.596Z,5.90
2023-04-16T02:29:11.142Z,6.43
2023-04-16T02:31:41.822Z,6.35
2023-04-16T02:34:11.943Z,5.88
2023-04-16T02:36:42.322Z,5.45
2023-04-16T02:39:12.399Z,6.07
2023-04-16T02:41:42.572Z,7.03
2023-04-16T02:44:12.641Z,6.63
2023-04-16T02:46:42.752Z,7.65
2023-04-16T02:49:12.887Z,6.45
2023-04-16T02:51:43.075Z,6.55
2023-04-16T02:54:13.292Z,7.40
2023-04-16T02:56:43.328Z,6.72
2023-04-16T02:59:13.533Z,6.05
2023-04-16T03:01:43.633Z,5.65
2023-04-16T03:04:13.923Z,5.28
2023-04-16T03:06:44.029Z,7.75
2023-04-16T03:09:15.163Z,5.70
2023-04-16T03:11:45.308Z,6.00
2023-04-16T03:14:15.645Z,5.82
2023-04-16T03:16:45.710Z,5.63
2023-04-16T03:19:16.009Z,5.13
2023-04-16T03:21:46.071Z,6.35
2023-04-16T03:24:16.470Z,6.57
2023-04-16T03:26:46.494Z,6.95
2023-04-16T03:29:16.554Z,6.25
2023-04-16T03:31:46.644Z,6.88
2023-04-16T03:34:16.958Z,6.05
2023-04-16T03:36:47.095Z,6.85
2023-04-16T03:39:17.349Z,5.20
2023-04-16T03:41:47.468Z,5.93
2023-04-16T03:44:17.574Z,6.57
2023-04-16T03:46:47.826Z,7.10
2023-04-16T03:49:17.933Z,5.85
2023-04-16T03:51:48.063Z,6.82
2023-04-16T03:54:19.262Z,7.30
2023-04-16T03:56:52.162Z,6.80
2023-04-16T03:59:22.293Z,5.97
2023-04-16T04:01:52.581Z,7.13
2023-04-16T04:04:23.472Z,6.90
2023-04-16T04:06:53.740Z,6.95
2023-04-16T04:09:23.845Z,6.63
2023-04-16T04:11:53.937Z,7.22
2023-04-16T04:14:24.050Z,7.85
2023-04-16T04:16:54.186Z,7.68
2023-04-16T04:19:24.293Z,8.68
2023-04-16T04:21:54.381Z,7.50
2023-04-16T04:24:24.590Z,6.45
2023-04-16T04:26:54.716Z,6.82
2023-04-16T04:29:24.874Z,5.93
2023-04-16T04:31:55.405Z,7.15
2023-04-16T04:34:25.741Z,6.00
2023-04-16T04:36:55.796Z,6.15
2023-04-16T04:39:25.942Z,5.72
2023-04-16T04:41:57.418Z,5.35
2023-04-16T04:44:27.522Z,6.18
2023-04-16T04:46:57.635Z,7.20
2023-04-16T04:49:27.765Z,7.03
2023-04-16T04:51:57.885Z,7.15
2023-04-16T04:54:31.635Z,5.40
2023-04-16T04:57:02.086Z,4.90
2023-04-16T04:59:32.397Z,6.63
2023-04-16T05:02:03.660Z,7.18
2023-04-16T05:04:33.886Z,5.60
2023-04-16T05:07:04.015Z,5.22
2023-04-16T05:09:34.153Z,10.15
2023-04-16T05:12:04.407Z,6.07
2023-04-16T05:14:35.030Z,4.97
2023-04-16T05:17:05.212Z,5.28
2023-04-16T05:19:35.499Z,5.82
2023-04-16T05:22:05.914Z,5.88
2023-04-16T05:24:35.942Z,5.88
2023-04-16T05:27:06.643Z,9.80
2023-04-16T05:29:36.771Z,7.38
2023-04-16T05:32:06.910Z,7.68
2023-04-16T05:34:36.972Z,7.35
2023-04-16T05:37:07.068Z,6.75
2023-04-16T05:39:37.213Z,7.13
2023-04-16T05:42:07.298Z,6.35
2023-04-16T05:44:37.717Z,7.32
2023-04-16T05:47:09.626Z,7.38
2023-04-16T05:49:39.724Z,8.23
2023-04-16T05:52:10.219Z,7.20
2023-04-16T05:54:40.594Z,5.53
2023-04-16T05:57:10.901Z,7.03
2023-04-16T05:59:41.143Z,5.72
2023-04-16T06:02:11.465Z,6.05
2023-04-16T06:04:41.715Z,5.32
2023-04-16T06:07:11.951Z,16.33
2023-04-16T06:09:42.253Z,5.43
2023-04-16T06:12:13.139Z,5.45
2023-04-16T06:14:43.406Z,5.70
2023-04-16T06:17:13.648Z,6.40
2023-04-16T06:19:43.910Z,5.28
2023-04-16T06:22:14.244Z,5.15
2023-04-16T06:24:44.664Z,4.43
2023-04-16T06:27:14.830Z,5.43
2023-04-16T06:29:45.174Z,4.72
2023-04-16T06:32:17.303Z,5.78
2023-04-16T06:34:47.522Z,4.47
2023-04-16T06:37:17.735Z,4.60
2023-04-16T06:39:47.896Z,5.22
2023-04-16T06:42:19.079Z,4.78
2023-04-16T06:44:49.280Z,4.30
2023-04-16T06:47:19.557Z,4.25
2023-04-16T06:49:49.671Z,5.93
2023-04-16T06:52:19.873Z,6.15
2023-04-16T06:54:49.994Z,4.95
2023-04-16T06:57:20.158Z,4.88
2023-04-16T06:59:50.492Z,4.65
2023-04-16T07:02:20.892Z,3.92
2023-04-16T07:04:52.583Z,5.15
2023-04-16T07:07:22.632Z,5.82
2023-04-16T07:09:52.861Z,4.40
2023-04-16T07:12:23.144Z,4.70
2023-04-16T07:14:53.442Z,5.55
2023-04-16T07:17:23.567Z,8.20
2023-04-16T07:19:53.714Z,5.68
2023-04-16T07:22:23.859Z,5.15
2023-04-16T07:24:54.036Z,7.50
2023-04-16T07:27:24.233Z,5.78
2023-04-16T07:29:55.554Z,5.68
2023-04-16T07:32:26.372Z,4.78
2023-04-16T07:34:57.217Z,3.67
2023-04-16T07:37:27.450Z,3.78
2023-04-16T07:39:57.845Z,5.25
2023-04-16T07:42:28.400Z,4.18
2023-04-16T07:44:58.533Z,3.42
2023-04-16T07:47:28.730Z,5.30
2023-04-16T07:49:58.878Z,4.15
2023-04-16T07:52:29.049Z,4.07
2023-04-16T07:54:59.133Z,4.68
2023-04-16T07:57:29.334Z,4.70
2023-04-16T08:00:02.434Z,2.63
2023-04-16T08:02:33.142Z,4.05
2023-04-16T08:05:03.551Z,3.72
2023-04-16T08:07:34.836Z,2.55
2023-04-16T08:10:06.190Z,3.58
2023-04-16T08:12:36.427Z,2.83
2023-04-16T08:15:07.615Z,2.72
2023-04-16T08:17:37.922Z,3.88
2023-04-16T08:20:08.745Z,3.45
2023-04-16T08:22:38.870Z,3.53
2023-04-16T08:25:09.570Z,2.83
2023-04-16T08:27:39.734Z,2.95
2023-04-16T08:30:09.990Z,2.55
2023-04-16T08:32:40.197Z,2.25
2023-04-16T08:35:10.635Z,3.00
2023-04-16T08:37:40.902Z,3.33
2023-04-16T08:40:11.390Z,3.05
2023-04-16T08:42:49.019Z,1.85
2023-04-16T08:45:19.200Z,1.60
2023-04-16T08:47:51.624Z,2.08
2023-04-16T08:50:26.809Z,4.18
2023-04-16T08:53:09.161Z,3.03
2023-04-16T08:55:41.457Z,2.10
2023-04-16T08:58:19.194Z,1.85
2023-04-16T09:00:50.128Z,1.90
2023-04-16T09:03:21.881Z,3.00
2023-04-16T09:05:53.779Z,2.33
2023-04-16T09:08:24.583Z,2.58
2023-04-16T09:10:56.180Z,2.50
2023-04-16T09:13:27.148Z,2.45
2023-04-16T09:15:57.803Z,2.55
2023-04-16T09:18:28.650Z,2.63
2023-04-16T09:20:58.974Z,3.53
2023-04-16T09:23:29.838Z,3.13
2023-04-16T09:26:00.156Z,3.10
2023-04-16T09:28:45.514Z,2.13
2023-04-16T09:31:18.032Z,3.22
2023-04-16T09:34:09.315Z,2.97
2023-04-16T09:36:40.209Z,2.20
2023-04-16T09:39:21.471Z,7.55
2023-04-16T09:41:55.350Z,15.15
2023-04-16T09:44:38.567Z,14.75
2023-04-16T09:47:09.814Z,7.50
2023-04-16T09:49:43.700Z,17.08
2023-04-16T09:52:19.265Z,7.25
2023-04-16T09:54:54.490Z,7.07
2023-04-16T09:57:26.199Z,8.88
2023-04-16T10:00:05.330Z,5.32
2023-04-16T10:02:39.666Z,2.53
2023-04-16T10:05:11.042Z,11.50
2023-04-16T10:07:41.665Z,4.20
2023-04-16T10:10:15.953Z,2.83
2023-04-16T10:12:47.842Z,3.65
2023-04-16T10:15:24.459Z,2.50
2023-04-16T10:20:33.082Z,3.38
2023-04-16T10:23:10.199Z,15.77
2023-04-16T10:25:47.761Z,12.07
2023-04-16T10:28:23.498Z,6.25
2023-04-16T10:30:58.782Z,7.53
2023-04-16T10:33:47.796Z,7.45
2023-04-16T10:36:30.073Z,8.43
2023-04-16T10:39:13.075Z,6.07
2023-04-16T10:41:46.373Z,10.13
2023-04-16T10:44:20.832Z,4.47
2023-04-16T10:46:59.737Z,7.32
2023-04-16T10:49:29.910Z,15.15
2023-04-16T10:52:07.521Z,11.10
2023-04-16T10:54:38.269Z,17.60
2023-04-16T10:57:19.861Z,11.93
2023-04-16T10:59:50.028Z,8.27
2023-04-16T11:02:20.394Z,6.20
2023-04-16T11:04:50.819Z,3.90
2023-04-16T11:07:32.271Z,2.83
2023-04-16T11:10:06.928Z,17.83
2023-04-16T11:12:45.049Z,6.82
2023-04-16T11:15:17.127Z,4.82
2023-04-16T11:17:50.785Z,4.25
2023-04-16T11:20:28.415Z,2.75
2023-04-16T11:22:58.851Z,3.72
2023-04-16T11:25:31.775Z,3.72
2023-04-16T11:28:02.714Z,4.50
2023-04-16T11:30:34.827Z,5.45
2023-04-16T11:33:05.601Z,5.07
2023-04-16T11:35:36.280Z,5.70
2023-04-16T11:38:07.692Z,4.10
2023-04-16T11:40:38.090Z,3.50
2023-04-16T11:43:16.588Z,2.80
2023-04-16T11:45:59.789Z,4.78
2023-04-16T11:48:54.592Z,7.15
2023-04-16T11:51:24.999Z,5.28
2023-04-16T11:53:56.642Z,9.02
2023-04-16T11:56:29.608Z,5.05
2023-04-16T11:59:15.841Z,3.80
2023-04-16T12:01:48.709Z,4.45
2023-04-16T12:04:21.577Z,4.40
2023-04-16T12:07:10.701Z,4.07
2023-04-16T12:09:43.268Z,4.20
2023-04-16T12:12:31.579Z,2.53
2023-04-16T12:15:04.090Z,5.97
2023-04-16T12:17:35.761Z,6.10
2023-04-16T12:20:13.971Z,7.60
2023-04-16T12:22:47.036Z,5.55
2023-04-16T12:25:18.248Z,3.38
2023-04-16T12:27:54.220Z,5.32
2023-04-16T12:30:26.603Z,6.03
2023-04-16T12:33:17.489Z,5.75
2023-04-16T12:35:47.772Z,3.40
2023-04-16T12:38:17.792Z,2.90
2023-04-16T12:40:48.069Z,3.97
2023-04-16T12:43:18.154Z,2.88
2023-04-16T12:45:48.933Z,3.35
2023-04-16T12:48:19.667Z,2.60
2023-04-16T12:50:55.034Z,6.45
2023-04-16T12:53:25.237Z,5.00
2023-04-16T12:55:55.481Z,4.97
2023-04-16T12:58:25.703Z,3.90
2023-04-16T13:00:56.086Z,2.83
2023-04-16T13:03:26.576Z,2.60
2023-04-16T13:05:57.199Z,2.75
2023-04-16T13:08:27.309Z,3.35
2023-04-16T13:10:57.585Z,3.50
2023-04-16T13:13:27.766Z,3.00
2023-04-16T13:15:58.061Z,3.42
2023-04-16T13:18:28.210Z,7.32
2023-04-16T13:20:58.789Z,12.27
2023-04-16T13:23:29.163Z,7.30
2023-04-16T13:25:59.279Z,5.40
2023-04-16T13:28:29.502Z,3.72
2023-04-16T13:31:00.013Z,5.82
2023-04-16T13:33:30.243Z,4.22
2023-04-16T13:36:00.529Z,4.68
2023-04-16T13:38:30.652Z,3.13
2023-04-16T13:41:10.561Z,7.03
2023-04-16T13:43:40.621Z,3.70
2023-04-16T13:46:10.774Z,7.32
2023-04-16T13:48:41.060Z,6.60
2023-04-16T13:51:11.336Z,7.18
2023-04-16T13:53:45.262Z,7.35
2023-04-16T13:56:20.732Z,5.05
2023-04-16T13:58:51.120Z,4.47
2023-04-16T14:01:21.958Z,6.93
2023-04-16T14:03:52.254Z,4.28
2023-04-16T14:06:22.480Z,4.85
2023-04-16T14:08:52.712Z,3.50
2023-04-16T14:11:23.799Z,4.18
2023-04-16T14:13:54.159Z,3.15
2023-04-16T14:16:24.522Z,4.65
2023-04-16T14:18:56.258Z,12.20
2023-04-16T14:21:27.412Z,8.10
2023-04-16T14:23:57.801Z,5.85
2023-04-16T14:26:28.003Z,8.68
2023-04-16T14:28:58.224Z,6.90
2023-04-16T14:31:28.571Z,6.30
2023-04-16T14:33:58.818Z,8.52
2023-04-16T14:36:30.185Z,9.80
2023-04-16T14:39:00.861Z,12.05
2023-04-16T14:41:31.579Z,10.15
2023-04-16T14:44:01.621Z,17.25
2023-04-16T14:46:33.887Z,8.82
2023-04-16T14:49:04.598Z,7.30
2023-04-16T14:51:36.120Z,11.15
2023-04-16T14:54:06.637Z,7.07
2023-04-16T14:56:36.697Z,6.03
2023-04-16T14:59:07.053Z,6.30
2023-04-16T15:01:39.865Z,5.63
2023-04-16T15:04:10.260Z,3.92
2023-04-16T15:06:40.576Z,2.65
2023-04-16T15:09:10.996Z,3.00
2023-04-16T15:11:41.227Z,3.28
2023-04-16T15:14:11.586Z,3.28
2023-04-16T15:16:42.930Z,2.42
2023-04-16T15:19:15.886Z,3.58
2023-04-16T15:21:50.834Z,4.20
2023-04-16T15:24:25.332Z,3.35
2023-04-16T15:26:59.593Z,4.32
2023-04-16T15:29:30.932Z,4.10
2023-04-16T15:32:01.528Z,4.03
2023-04-16T15:34:32.813Z,4.63
2023-04-16T15:37:02.947Z,6.78
2023-04-16T15:39:33.115Z,5.38
2023-04-16T15:42:07.397Z,7.43
2023-04-16T15:44:37.957Z,8.00
2023-04-16T15:47:08.909Z,4.15
2023-04-16T15:49:39.076Z,5.68
2023-04-16T15:52:11.991Z,8.50
2023-04-16T15:54:43.200Z,8.40
2023-04-16T15:57:13.384Z,6.00
2023-04-16T15:59:46.195Z,4.85
2023-04-16T16:02:23.517Z,2.90
2023-04-16T16:04:54.091Z,8.10
2023-04-16T16:07:25.368Z,20.00
2023-04-16T16:09:56.461Z,16.10
2023-04-16T16:12:29.752Z,20.92
2023-04-16T16:15:00.218Z,21.27
2023-04-16T16:17:32.790Z,15.82
2023-04-16T16:20:06.878Z,17.77
2023-04-16T16:22:38.466Z,13.40
2023-04-16T16:25:16.663Z,15.48
2023-04-16T16:27:57.267Z,11.07
2023-04-16T16:30:31.415Z,5.63
2023-04-16T16:33:01.668Z,3.63
2023-04-16T16:35:32.113Z,4.85
2023-04-16T16:38:08.975Z,9.85
2023-04-16T16:40:41.025Z,9.88
2023-04-16T16:43:14.230Z,10.00
2023-04-16T16:45:46.607Z,11.05
2023-04-16T16:48:19.197Z,13.90
2023-04-16T16:51:05.700Z,9.25
2023-04-16T16:56:06.794Z,5.07
2023-04-16T16:58:39.159Z,6.60
2023-04-16T17:01:09.785Z,2.85
2023-04-16T17:03:40.852Z,3.05
2023-04-16T17:06:11.292Z,6.38
2023-04-16T17:08:41.456Z,9.63
2023-04-16T17:11:11.809Z,11.95
2023-04-16T17:13:42.027Z,13.35
2023-04-16T17:16:13.510Z,15.32
2023-04-16T17:18:43.790Z,23.17
2023-04-16T17:21:15.927Z,19.38
2023-04-16T17:23:46.810Z,17.10
2023-04-16T17:26:17.324Z,17.85
2023-04-16T17:28:48.249Z,13.25
2023-04-16T17:31:18.622Z,7.75
2023-04-16T17:33:49.893Z,8.50
2023-04-16T17:36:21.825Z,7.25
2023-04-16T17:38:52.134Z,6.47
2023-04-16T17:41:22.300Z,6.53
2023-04-16T17:43:52.746Z,4.55
2023-04-16T17:46:23.379Z,7.45
2023-04-16T17:48:53.958Z,8.05
2023-04-16T17:51:24.320Z,8.85
2023-04-16T17:53:54.647Z,6.22
2023-04-16T17:56:40.398Z,5.43
2023-04-16T17:59:10.630Z,3.97
2023-04-16T18:01:41.208Z,12.60
2023-04-16T18:04:11.752Z,100.63
2023-04-16T18:06:43.116Z,115.82
2023-04-16T18:09:14.595Z,111.15
2023-04-16T18:11:47.745Z,87.90
2023-04-16T18:14:20.469Z,54.92
2023-04-16T18:16:50.817Z,105.10
2023-04-16T18:19:26.489Z,75.20
2023-04-16T18:21:56.684Z,112.88
2023-04-16T18:24:27.103Z,88.57
2023-04-16T18:26:57.362Z,68.55
2023-04-16T18:29:27.457Z,52.60
2023-04-16T18:31:58.126Z,49.63
2023-04-16T18:34:29.850Z,48.35
2023-04-16T18:37:00.978Z,78.32
2023-04-16T18:39:33.939Z,57.67
2023-04-16T18:42:06.864Z,46.67
2023-04-16T18:44:37.545Z,35.30
2023-04-16T18:47:08.386Z,24.88
2023-04-16T18:49:38.748Z,21.88
2023-04-16T18:52:09.189Z,17.38
2023-04-16T18:54:40.953Z,14.38
2023-04-16T18:57:11.110Z,11.80
2023-04-16T18:59:41.273Z,9.23
2023-04-16T19:02:11.471Z,5.07
2023-04-16T19:04:42.986Z,10.57
2023-04-16T19:07:13.331Z,10.55
2023-04-16T19:09:43.538Z,10.60
2023-04-16T19:12:13.795Z,6.70
2023-04-16T19:14:43.916Z,6.57
2023-04-16T19:17:14.037Z,21.88
2023-04-16T19:19:44.216Z,13.75
2023-04-16T19:22:14.468Z,16.00
2023-04-16T19:24:44.616Z,26.05
2023-04-16T19:27:14.833Z,27.08
2023-04-16T19:29:46.846Z,33.03
2023-04-16T19:32:16.974Z,37.65
2023-04-16T19:34:47.661Z,34.85
2023-04-16T19:37:18.510Z,26.88
2023-04-16T19:39:48.751Z,29.00
2023-04-16T19:42:18.961Z,17.85
2023-04-16T19:44:49.210Z,25.73
2023-04-16T19:47:20.402Z,30.20
2023-04-16T19:49:51.644Z,21.20
2023-04-16T19:52:22.914Z,26.15
2023-04-16T19:54:56.830Z,35.95
2023-04-16T19:57:29.141Z,32.97
2023-04-16T19:59:59.482Z,24.42
2023-04-16T20:02:29.719Z,22.30
2023-04-16T20:05:01.602Z,23.90
2023-04-16T20:07:31.677Z,18.27
2023-04-16T20:10:03.100Z,18.20
2023-04-16T20:12:33.606Z,16.52
2023-04-16T20:15:04.619Z,13.18
2023-04-16T20:17:34.878Z,11.65
2023-04-16T20:20:10.229Z,12.25
2023-04-16T20:22:40.583Z,8.82
2023-04-16T20:25:10.812Z,12.95
2023-04-16T20:27:40.979Z,10.70
2023-04-16T20:30:11.665Z,7.75
2023-04-16T20:32:41.963Z,8.63
2023-04-16T20:35:12.321Z,4.88
2023-04-16T20:37:43.283Z,5.10
2023-04-16T20:40:15.090Z,7.53
2023-04-16T20:42:51.040Z,4.53
2023-04-16T20:45:22.008Z,7.60
2023-04-16T20:47:52.410Z,6.60
2023-04-16T20:50:22.530Z,7.53
2023-04-16T20:52:53.009Z,7.35
2023-04-16T20:55:23.239Z,11.68
2023-04-16T20:57:53.349Z,11.63
2023-04-16T21:00:23.555Z,12.15
2023-04-16T21:02:53.826Z,17.88
2023-04-16T21:05:26.637Z,20.25
2023-04-16T21:07:56.798Z,23.85
2023-04-16T21:10:26.917Z,18.67
2023-04-16T21:12:57.244Z,12.18
2023-04-16T21:15:27.297Z,8.80
2023-04-16T21:17:57.515Z,10.15
2023-04-16T21:20:29.917Z,9.13
2023-04-16T21:23:01.206Z,6.88
2023-04-16T21:25:31.956Z,5.60
2023-04-16T21:28:02.166Z,5.15
2023-04-16T21:30:32.538Z,5.78
2023-04-16T21:33:03.534Z,6.85
2023-04-16T21:35:34.171Z,6.78
2023-04-16T21:38:04.285Z,6.88
2023-04-16T21:40:34.894Z,5.38
2023-04-16T21:43:05.072Z,5.72
2023-04-16T21:45:35.757Z,7.15
2023-04-16T21:48:06.159Z,9.55
2023-04-16T21:50:36.338Z,10.55
2023-04-16T21:53:06.771Z,9.00
2023-04-16T21:55:37.180Z,10.18
2023-04-16T21:58:07.375Z,11.25
2023-04-16T22:00:37.566Z,16.60
2023-04-16T22:03:09.225Z,11.63
2023-04-16T22:05:39.478Z,13.50
2023-04-16T22:08:23.459Z,17.45
2023-04-16T22:11:02.247Z,16.17
2023-04-16T22:13:36.795Z,15.63
2023-04-16T22:16:08.808Z,14.80
2023-04-16T22:18:41.564Z,12.05
2023-04-16T22:21:11.843Z,10.02
2023-04-16T22:23:42.025Z,12.82
2023-04-16T22:26:13.011Z,11.32
2023-04-16T22:28:43.168Z,6.47
2023-04-16T22:31:13.534Z,7.22
2023-04-16T22:33:43.650Z,7.03
2023-04-16T22:36:13.863Z,5.40
2023-04-16T22:38:44.007Z,7.97
2023-04-16T22:41:14.291Z,4.32
2023-04-16T22:43:44.405Z,5.50
2023-04-16T22:46:14.772Z,7.75
2023-04-16T22:48:45.014Z,4.70
2023-04-16T22:51:15.205Z,3.80
2023-04-16T22:53:45.304Z,3.30
2023-04-16T22:56:15.442Z,3.47
2023-04-16T22:58:46.486Z,3.40
2023-04-16T23:01:17.250Z,4.10
2023-04-16T23:03:47.615Z,4.13
2023-04-16T23:06:17.843Z,3.33
2023-04-16T23:08:47.953Z,2.47
2023-04-16T23:11:18.156Z,3.35
2023-04-16T23:13:48.395Z,3.22
2023-04-16T23:16:18.623Z,3.67
2023-04-16T23:18:48.773Z,3.75
2023-04-16T23:21:18.914Z,3.65
2023-04-16T23:23:49.050Z,4.07
2023-04-16T23:26:19.100Z,5.85
2023-04-16T23:28:49.255Z,3.60
2023-04-16T23:31:19.343Z,4.38
2023-04-16T23:33:49.526Z,5.10
2023-04-16T23:36:19.648Z,3.15
2023-04-16T23:38:49.813Z,5.03
2023-04-16T23:41:20.030Z,6.90
2023-04-16T23:43:50.209Z,5.20
2023-04-16T23:46:20.541Z,3.90
2023-04-16T23:48:50.780Z,4.25
2023-04-16T23:51:20.986Z,4.72
2023-04-16T23:53:51.121Z,3.95
2023-04-16T23:56:21.370Z,4.85
2023-04-16T23:58:51.534Z,4.82
